Time;durP1;ratioP1;P1;durP2;ratioP2;P2;SDS_P1;SDS_P2;PMS_P1;PMS_P2;Temp;Humidity;BMP_temperature;BMP_pressure;BME280_temperature;BME280_humidity;BME280_pressure;Samples;Min_cycle;Max_cycle;Signal;HPM_P1;HPM_P2
2022/03/20 00:00:14;;;;;;;13.93;6.80;;;5.50;99.90;;;;;;6181375;23;20020;-69
2022/03/20 00:02:41;;;;;;;9.98;6.10;;;5.50;99.90;;;;;;6181701;23;20009;-71
2022/03/20 00:05:07;;;;;;;13.70;6.40;;;5.40;99.90;;;;;;6181848;23;20009;-69
2022/03/20 00:07:37;;;;;;;10.48;5.72;;;5.40;99.90;;;;;;6181625;23;20006;-68
2022/03/20 00:10:07;;;;;;;10.88;6.20;;;5.40;99.90;;;;;;6181255;23;20032;-69
2022/03/20 00:12:39;;;;;;;10.77;6.47;;;5.40;99.90;;;;;;6179651;23;20013;-70
2022/03/20 00:15:08;;;;;;;13.20;6.50;;;5.40;99.90;;;;;;6181654;23;20024;-71
2022/03/20 00:17:35;;;;;;;9.75;6.20;;;5.40;99.90;;;;;;6182012;23;20013;-68
2022/03/20 00:20:00;;;;;;;9.82;5.93;;;5.30;99.90;;;;;;6178912;23;19997;-68
2022/03/20 00:22:27;;;;;;;12.15;6.22;;;5.30;99.90;;;;;;6183020;23;20020;-69
2022/03/20 00:24:55;;;;;;;11.68;6.22;;;5.30;99.90;;;;;;6182946;23;20009;-70
2022/03/20 00:27:21;;;;;;;10.07;6.63;;;5.30;99.90;;;;;;6184420;23;20029;-68
2022/03/20 00:29:49;;;;;;;12.00;6.93;;;5.30;99.90;;;;;;6183805;23;20476;-69
2022/03/20 00:32:14;;;;;;;11.45;6.68;;;5.20;99.90;;;;;;6183106;23;20056;-70
2022/03/20 00:34:43;;;;;;;15.95;7.15;;;5.20;99.90;;;;;;6183280;23;20010;-69
2022/03/20 00:37:09;;;;;;;15.38;7.20;;;5.20;99.90;;;;;;6183178;23;19997;-69
2022/03/20 00:39:35;;;;;;;14.07;7.00;;;5.20;99.90;;;;;;6183360;23;20013;-70
2022/03/20 00:42:04;;;;;;;16.27;7.35;;;5.10;99.90;;;;;;6183255;23;20032;-69
2022/03/20 00:44:30;;;;;;;14.50;6.77;;;5.10;99.90;;;;;;6183988;23;20010;-69
2022/03/20 00:46:58;;;;;;;12.75;7.43;;;5.10;99.90;;;;;;6183879;23;20241;-71
2022/03/20 00:49:26;;;;;;;14.02;7.03;;;5.10;99.90;;;;;;6184403;23;20041;-69
2022/03/20 00:51:52;;;;;;;10.80;7.30;;;5.10;99.90;;;;;;6183129;23;20053;-69
2022/03/20 00:54:20;;;;;;;13.27;8.13;;;5.10;99.90;;;;;;6183241;23;19996;-70
2022/03/20 00:56:46;;;;;;;13.85;7.78;;;5.10;99.90;;;;;;6183703;23;20462;-71
2022/03/20 00:59:12;;;;;;;15.32;8.45;;;5.10;99.90;;;;;;6183094;23;20029;-69
2022/03/20 01:01:44;;;;;;;13.95;8.45;;;5.10;99.90;;;;;;6182963;23;20010;-70
2022/03/20 01:04:16;;;;;;;15.10;8.48;;;5.10;99.90;;;;;;6182661;23;20496;-71
2022/03/20 01:06:42;;;;;;;15.00;8.85;;;5.10;99.90;;;;;;6183140;23;20009;-71
2022/03/20 01:09:11;;;;;;;15.18;8.48;;;5.10;99.90;;;;;;6183630;23;20050;-68
2022/03/20 01:11:40;;;;;;;16.88;9.65;;;5.10;99.90;;;;;;6159125;23;20025;-68
2022/03/20 01:14:07;;;;;;;16.48;9.50;;;5.10;99.90;;;;;;6182940;23;20045;-70
2022/03/20 01:16:33;;;;;;;16.00;9.95;;;5.10;99.90;;;;;;6183189;23;20017;-71
2022/03/20 01:19:01;;;;;;;17.02;9.35;;;5.10;99.90;;;;;;6183623;23;20061;-68
2022/03/20 01:21:30;;;;;;;17.52;10.65;;;5.10;99.90;;;;;;6182718;23;20016;-69
2022/03/20 01:23:58;;;;;;;17.77;10.40;;;5.10;99.90;;;;;;6182856;23;20009;-71
2022/03/20 01:26:24;;;;;;;18.02;10.68;;;5.10;99.90;;;;;;6183252;23;20050;-68
2022/03/20 01:28:52;;;;;;;17.50;10.25;;;5.00;99.90;;;;;;6182608;23;20013;-70
2022/03/20 01:31:17;;;;;;;21.15;10.93;;;5.00;99.90;;;;;;6183320;23;20005;-68
2022/03/20 01:33:45;;;;;;;14.45;10.25;;;5.00;99.90;;;;;;6182240;23;20005;-69
2022/03/20 01:36:13;;;;;;;17.15;10.02;;;5.00;99.90;;;;;;6182785;23;20004;-69
2022/03/20 01:38:40;;;;;;;17.23;10.35;;;4.90;99.90;;;;;;6183583;23;20056;-69
2022/03/20 01:41:06;;;;;;;15.15;9.73;;;4.90;99.90;;;;;;6182381;23;20014;-69
2022/03/20 01:43:34;;;;;;;19.92;10.80;;;4.80;99.90;;;;;;6182683;23;20036;-70
2022/03/20 01:46:02;;;;;;;20.33;10.85;;;4.80;99.90;;;;;;6183606;23;20033;-68
2022/03/20 01:48:28;;;;;;;16.95;10.85;;;4.70;99.90;;;;;;6182739;23;20006;-70
2022/03/20 01:50:56;;;;;;;15.88;9.30;;;4.60;99.90;;;;;;6182715;23;20073;-71
2022/03/20 01:53:27;;;;;;;16.95;9.85;;;4.60;99.90;;;;;;6182995;23;20041;-68
2022/03/20 01:55:53;;;;;;;13.98;9.63;;;4.60;99.90;;;;;;6183125;23;20036;-70
2022/03/20 01:58:20;;;;;;;17.85;10.20;;;4.50;99.90;;;;;;6157849;23;19997;-71
2022/03/20 02:00:46;;;;;;;14.15;9.15;;;4.50;99.90;;;;;;6182574;23;20020;-69
2022/03/20 02:03:14;;;;;;;13.52;9.20;;;4.40;99.90;;;;;;6153588;23;20062;-69
2022/03/20 02:05:42;;;;;;;16.38;10.00;;;4.40;99.90;;;;;;6157544;23;20012;-69
2022/03/20 02:08:10;;;;;;;18.10;10.05;;;4.30;99.90;;;;;;6182894;23;20025;-69
2022/03/20 02:10:36;;;;;;;17.05;9.45;;;4.30;99.90;;;;;;6157993;23;20037;-70
2022/03/20 02:13:02;;;;;;;17.27;10.35;;;4.30;99.90;;;;;;6182792;23;19997;-69
2022/03/20 02:15:31;;;;;;;20.25;10.57;;;4.20;99.90;;;;;;6182901;23;20024;-69
2022/03/20 02:17:58;;;;;;;19.65;10.50;;;4.10;99.90;;;;;;6157506;23;20021;-71
2022/03/20 02:20:29;;;;;;;16.00;9.57;;;4.10;99.90;;;;;;6157465;23;19997;-69
2022/03/20 02:22:55;;;;;;;18.25;10.20;;;4.00;99.90;;;;;;6180436;23;20010;-69
2022/03/20 02:25:23;;;;;;;19.83;10.55;;;4.00;99.90;;;;;;6182744;23;20012;-67
2022/03/20 02:27:49;;;;;;;17.80;10.65;;;4.00;99.90;;;;;;6182677;23;20016;-70
2022/03/20 02:30:16;;;;;;;17.67;10.40;;;4.00;99.90;;;;;;6133071;23;20014;-69
2022/03/20 02:32:51;;;;;;;19.70;10.55;;;3.90;99.90;;;;;;6132736;23;20017;-68
2022/03/20 02:35:20;;;;;;;17.95;10.10;;;3.90;99.90;;;;;;6157382;23;20028;-71
2022/03/20 02:37:51;;;;;;;13.98;10.18;;;3.80;99.90;;;;;;6157359;23;20013;-67
2022/03/20 02:40:24;;;;;;;17.95;10.50;;;3.80;99.90;;;;;;6181098;23;20077;-69
2022/03/20 02:42:54;;;;;;;19.85;10.48;;;3.80;99.90;;;;;;6182514;23;19993;-68
2022/03/20 02:45:30;;;;;;;17.33;10.82;;;3.70;99.90;;;;;;6157169;23;20005;-68
2022/03/20 02:47:57;;;;;;;19.50;11.52;;;3.70;99.90;;;;;;6132598;23;20013;-69
2022/03/20 02:50:25;;;;;;;19.25;11.50;;;3.70;99.90;;;;;;6157086;23;20367;-69
2022/03/20 02:53:11;;;;;;;20.80;11.15;;;3.70;99.90;;;;;;6156474;23;20006;-68
2022/03/20 02:55:41;;;;;;;20.42;11.68;;;3.60;99.90;;;;;;6182648;23;20013;-68
2022/03/20 02:58:12;;;;;;;20.08;10.85;;;3.70;99.90;;;;;;6132518;23;20025;-70
2022/03/20 03:00:41;;;;;;;20.75;11.88;;;3.60;99.90;;;;;;6156804;23;20021;-71
2022/03/20 03:03:11;;;;;;;18.23;12.17;;;3.60;99.90;;;;;;6156900;23;20053;-69
2022/03/20 03:05:38;;;;;;;21.40;11.25;;;3.50;99.90;;;;;;6151817;23;20332;-69
2022/03/20 03:11:00;;;;;;;21.45;12.23;;;3.50;99.90;;;;;;6150609;23;20045;-71
2022/03/20 03:13:34;;;;;;;19.15;12.02;;;3.60;99.90;;;;;;6152883;23;19994;-69
2022/03/20 03:16:01;;;;;;;21.35;12.63;;;3.50;99.90;;;;;;6151962;23;20021;-68
2022/03/20 03:18:30;;;;;;;21.10;11.85;;;3.50;99.90;;;;;;6152203;23;20013;-69
2022/03/20 03:20:59;;;;;;;18.83;11.50;;;3.50;99.90;;;;;;6152397;23;20010;-71
2022/03/20 03:23:27;;;;;;;20.92;11.77;;;3.40;99.90;;;;;;6127001;23;20021;-70
2022/03/20 03:25:56;;;;;;;21.33;12.73;;;3.40;99.90;;;;;;6152368;23;20041;-69
2022/03/20 03:28:23;;;;;;;21.05;12.40;;;3.40;99.90;;;;;;6152775;23;20013;-69
2022/03/20 03:30:50;;;;;;;22.67;13.20;;;3.40;99.90;;;;;;6152440;23;20040;-69
2022/03/20 03:33:20;;;;;;;19.75;11.75;;;3.40;99.90;;;;;;6152049;23;20002;-70
2022/03/20 03:35:53;;;;;;;20.75;13.23;;;3.40;99.90;;;;;;6152552;23;20010;-69
2022/03/20 03:38:21;;;;;;;21.73;12.93;;;3.40;99.90;;;;;;6126486;23;20010;-70
2022/03/20 03:40:50;;;;;;;19.60;12.20;;;3.30;99.90;;;;;;6151736;23;20022;-69
2022/03/20 03:43:18;;;;;;;19.42;13.02;;;3.30;99.90;;;;;;6151911;23;19998;-68
2022/03/20 03:45:45;;;;;;;20.73;13.23;;;3.30;99.90;;;;;;6152538;23;20038;-67
2022/03/20 03:48:12;;;;;;;24.00;13.57;;;3.30;99.90;;;;;;6152476;23;20017;-69
2022/03/20 03:50:42;;;;;;;21.70;13.20;;;3.30;99.90;;;;;;6151420;23;20049;-69
2022/03/20 03:53:11;;;;;;;22.92;13.55;;;3.30;99.90;;;;;;6153107;23;20004;-69
2022/03/20 03:55:44;;;;;;;22.73;13.52;;;3.30;99.90;;;;;;6153873;23;20045;-69
2022/03/20 03:58:10;;;;;;;20.45;13.05;;;3.30;99.90;;;;;;6153553;23;19998;-68
2022/03/20 04:00:43;;;;;;;22.92;13.18;;;3.30;99.90;;;;;;6153643;23;20010;-67
2022/03/20 04:03:09;;;;;;;24.65;14.13;;;3.20;99.90;;;;;;6153727;23;20033;-69
2022/03/20 04:05:36;;;;;;;21.52;13.88;;;3.20;99.90;;;;;;6153529;23;20012;-69
2022/03/20 04:08:05;;;;;;;25.10;15.00;;;3.20;99.90;;;;;;6154150;23;20006;-68
2022/03/20 04:10:31;;;;;;;29.70;13.93;;;3.10;99.90;;;;;;6155153;23;20016;-68
2022/03/20 04:12:57;;;;;;;22.88;14.02;;;3.10;99.90;;;;;;6154240;23;20014;-68
2022/03/20 04:15:31;;;;;;;23.33;14.38;;;3.10;99.90;;;;;;6154628;23;20002;-69
2022/03/20 04:17:58;;;;;;;25.95;14.80;;;3.10;99.90;;;;;;6154134;23;20033;-68
2022/03/20 04:20:26;;;;;;;24.33;14.30;;;3.00;99.90;;;;;;6153936;23;20025;-67
2022/03/20 04:25:44;;;;;;;26.77;15.85;;;3.00;99.90;;;;;;6152876;23;20062;-68
2022/03/20 04:28:12;;;;;;;23.00;15.18;;;3.00;99.90;;;;;;6129167;23;20010;-67
2022/03/20 04:30:43;;;;;;;26.10;15.98;;;3.00;99.90;;;;;;6152155;23;20016;-69
2022/03/20 04:33:09;;;;;;;26.58;15.63;;;3.00;99.90;;;;;;6128221;23;20053;-69
2022/03/20 04:35:35;;;;;;;25.25;15.20;;;2.90;99.90;;;;;;6153139;23;20026;-68
2022/03/20 04:38:01;;;;;;;23.40;15.70;;;3.00;99.90;;;;;;6152811;23;20010;-68
2022/03/20 04:40:30;;;;;;;23.40;16.00;;;3.00;99.90;;;;;;6153094;23;20021;-70
2022/03/20 04:42:55;;;;;;;25.00;15.57;;;2.90;99.90;;;;;;6152491;23;20042;-69
2022/03/20 04:45:21;;;;;;;26.42;15.35;;;2.90;99.90;;;;;;6128572;23;20034;-68
2022/03/20 04:58:46;;;;;;;28.33;16.85;;;2.80;99.90;;;;;;6152410;23;20041;-68
2022/03/20 05:01:15;;;;;;;29.20;16.95;;;2.80;99.90;;;;;;6152572;23;20002;-69
2022/03/20 05:03:41;;;;;;;23.90;16.10;;;2.80;99.90;;;;;;6157922;23;20023;-68
2022/03/20 05:06:07;;;;;;;29.20;16.42;;;2.70;99.90;;;;;;6183045;23;20076;-68
2022/03/20 05:08:36;;;;;;;27.70;16.90;;;2.70;99.90;;;;;;6157112;23;20010;-69
2022/03/20 05:13:47;;;;;;;29.20;17.05;;;2.70;99.90;;;;;;6157354;23;20001;-68
2022/03/20 05:16:14;;;;;;;30.90;17.00;;;2.70;99.90;;;;;;6132963;23;20040;-69
2022/03/20 05:18:40;;;;;;;27.42;18.23;;;2.60;99.90;;;;;;6182547;23;20027;-68
2022/03/20 05:21:06;;;;;;;26.15;16.70;;;2.60;99.90;;;;;;6182915;23;20045;-68
2022/03/20 05:23:33;;;;;;;27.00;17.85;;;2.60;99.90;;;;;;6157808;23;20013;-69
2022/03/20 05:26:01;;;;;;;28.67;18.30;;;2.60;99.90;;;;;;6157199;23;20036;-68
2022/03/20 05:28:27;;;;;;;26.40;17.40;;;2.50;99.90;;;;;;6157310;23;20013;-68
2022/03/20 05:30:52;;;;;;;27.25;17.60;;;2.60;99.90;;;;;;6132888;23;20020;-69
2022/03/20 05:33:18;;;;;;;30.10;19.05;;;2.50;99.90;;;;;;6183122;23;20020;-69
2022/03/20 05:35:47;;;;;;;27.98;17.45;;;2.50;99.90;;;;;;6157515;23;20012;-68
2022/03/20 05:38:15;;;;;;;28.98;18.45;;;2.50;99.90;;;;;;6158080;23;20033;-68
2022/03/20 05:40:42;;;;;;;28.85;19.00;;;2.50;99.90;;;;;;6182861;23;20059;-69
2022/03/20 05:43:08;;;;;;;28.52;18.80;;;2.50;99.90;;;;;;6156547;23;20520;-67
2022/03/20 05:45:39;;;;;;;32.03;17.65;;;2.50;99.90;;;;;;6182343;23;20057;-70
2022/03/20 05:48:05;;;;;;;29.08;18.67;;;2.50;99.90;;;;;;6156866;23;20013;-69
2022/03/20 05:50:31;;;;;;;27.25;18.60;;;2.50;99.90;;;;;;6182325;23;20017;-68
2022/03/20 05:52:59;;;;;;;29.35;18.63;;;2.50;99.90;;;;;;6182528;23;20016;-69
2022/03/20 05:58:12;;;;;;;30.77;18.50;;;2.50;99.90;;;;;;6137497;23;20001;-68
2022/03/20 06:00:41;;;;;;;27.58;18.02;;;2.50;99.90;;;;;;6132615;23;20032;-67
2022/03/20 06:03:09;;;;;;;29.85;19.40;;;2.50;99.90;;;;;;6178660;23;20013;-68
2022/03/20 06:06:52;;;;;;;32.38;18.90;;;2.50;99.90;;;;;;6157218;23;20017;-68
2022/03/20 06:09:19;;;;;;;26.60;17.95;;;2.50;99.90;;;;;;6156930;23;20002;-69
2022/03/20 06:11:45;;;;;;;31.05;19.60;;;2.50;99.90;;;;;;6182136;23;20056;-68
2022/03/20 06:14:14;;;;;;;27.88;17.88;;;2.50;99.90;;;;;;6132332;23;20009;-68
2022/03/20 06:16:39;;;;;;;28.10;18.33;;;2.60;99.90;;;;;;6182401;23;20020;-68
2022/03/20 06:19:08;;;;;;;27.27;18.60;;;2.60;99.90;;;;;;6156199;23;20013;-67
2022/03/20 06:21:38;;;;;;;29.70;18.75;;;2.60;99.90;;;;;;6156035;23;20080;-69
2022/03/20 06:24:06;;;;;;;29.13;18.77;;;2.60;99.90;;;;;;6156703;23;20006;-69
2022/03/20 06:26:32;;;;;;;27.38;18.63;;;2.70;99.90;;;;;;6131861;23;20017;-70
2022/03/20 06:28:58;;;;;;;28.23;18.45;;;2.70;99.90;;;;;;6156791;23;20061;-70
2022/03/20 06:31:24;;;;;;;31.38;19.88;;;2.70;99.90;;;;;;6156802;23;20001;-69
2022/03/20 06:33:50;;;;;;;31.33;19.73;;;2.70;99.90;;;;;;6132431;23;19998;-69
2022/03/20 06:36:23;;;;;;;31.52;19.00;;;2.80;99.90;;;;;;6156414;23;19998;-68
2022/03/20 06:38:49;;;;;;;29.67;19.98;;;2.80;99.90;;;;;;6182538;23;20016;-69
2022/03/20 06:41:18;;;;;;;32.33;20.08;;;2.80;99.90;;;;;;6132309;23;20001;-69
2022/03/20 06:43:44;;;;;;;32.67;19.63;;;2.90;99.90;;;;;;6156530;23;20014;-71
2022/03/20 06:46:10;;;;;;;31.80;18.63;;;2.90;99.90;;;;;;6156415;23;20069;-70
2022/03/20 06:48:36;;;;;;;29.85;19.17;;;3.00;99.90;;;;;;6156763;23;20013;-69
2022/03/20 06:51:04;;;;;;;30.75;18.30;;;3.00;99.90;;;;;;6156586;23;20014;-69
2022/03/20 06:53:35;;;;;;;28.77;18.83;;;3.10;99.90;;;;;;6132204;23;19997;-69
2022/03/20 06:56:01;;;;;;;29.73;18.80;;;3.20;99.90;;;;;;6182178;23;20033;-68
2022/03/20 06:58:28;;;;;;;32.63;19.60;;;3.20;99.90;;;;;;6182550;23;20001;-69
2022/03/20 07:00:57;;;;;;;32.17;19.08;;;3.30;99.90;;;;;;6156266;23;20014;-69
2022/03/20 07:03:23;;;;;;;30.45;19.10;;;3.40;99.90;;;;;;6156895;23;20085;-70
2022/03/20 07:05:48;;;;;;;29.42;19.52;;;3.50;99.90;;;;;;6182504;23;20025;-69
2022/03/20 07:08:17;;;;;;;26.85;17.88;;;3.60;99.90;;;;;;6182332;23;19997;-68
2022/03/20 07:10:43;;;;;;;32.10;18.83;;;3.70;99.90;;;;;;6156306;23;20021;-70
2022/03/20 07:15:57;;;;;;;28.83;18.80;;;3.80;99.90;;;;;;6181771;23;20008;-68
2022/03/20 07:18:29;;;;;;;28.77;19.00;;;3.90;99.90;;;;;;6182339;23;20048;-69
2022/03/20 07:20:55;;;;;;;31.08;19.63;;;3.90;99.90;;;;;;6182149;23;20066;-68
2022/03/20 07:23:22;;;;;;;31.55;19.10;;;4.00;99.90;;;;;;6182209;23;20025;-69
2022/03/20 07:31:17;;;;;;;28.50;19.17;;;4.10;99.90;;;;;;6158273;23;20347;-70
2022/03/20 07:33:44;;;;;;;30.05;18.75;;;4.20;99.90;;;;;;6184498;23;20045;-69
2022/03/20 07:36:10;;;;;;;31.00;19.27;;;4.20;99.90;;;;;;6184473;23;19997;-69
2022/03/20 07:38:35;;;;;;;30.35;19.65;;;4.30;99.90;;;;;;6159048;23;20020;-70
2022/03/20 07:41:02;;;;;;;30.08;18.63;;;4.30;99.90;;;;;;6158651;23;20014;-68
2022/03/20 07:43:32;;;;;;;27.85;19.48;;;4.40;99.90;;;;;;6183861;23;20019;-69
2022/03/20 07:46:01;;;;;;;31.13;18.67;;;4.40;99.90;;;;;;6133989;23;20028;-70
2022/03/20 07:48:27;;;;;;;31.87;19.50;;;4.60;99.90;;;;;;6158815;23;20061;-70
2022/03/20 07:51:03;;;;;;;29.60;18.55;;;4.70;99.90;;;;;;6183789;23;20014;-70
2022/03/20 07:53:36;;;;;;;31.80;19.20;;;4.80;99.90;;;;;;6133767;23;20013;-70
2022/03/20 07:56:04;;;;;;;31.30;19.05;;;5.00;99.90;;;;;;6159261;23;19997;-69
2022/03/20 07:58:32;;;;;;;30.52;18.70;;;5.00;99.90;;;;;;6134570;23;20036;-69
2022/03/20 08:01:00;;;;;;;27.42;18.23;;;5.10;99.90;;;;;;6158667;23;20018;-70
2022/03/20 08:03:26;;;;;;;31.92;19.33;;;5.30;99.90;;;;;;6158256;23;20049;-69
2022/03/20 08:05:52;;;;;;;31.20;18.75;;;5.40;99.90;;;;;;6134668;23;20017;-71
2022/03/20 08:08:39;;;;;;;28.70;18.55;;;5.50;99.90;;;;;;6130329;23;20017;-70
2022/03/20 08:11:06;;;;;;;30.50;19.67;;;5.60;99.90;;;;;;6158561;23;20061;-70
2022/03/20 08:13:34;;;;;;;30.42;19.30;;;5.70;99.10;;;;;;6184201;23;20013;-69
2022/03/20 08:16:15;;;;;;;31.77;18.95;;;5.80;97.90;;;;;;6159152;23;20012;-69
2022/03/20 08:18:49;;;;;;;30.58;20.10;;;5.90;96.70;;;;;;6133875;23;20020;-69
2022/03/20 08:21:20;;;;;;;28.83;18.95;;;5.90;95.70;;;;;;6154794;23;20013;-70
2022/03/20 08:23:48;;;;;;;28.33;18.85;;;6.00;93.90;;;;;;6184173;23;19997;-70
2022/03/20 08:26:17;;;;;;;32.20;18.83;;;5.90;93.40;;;;;;6158875;23;20010;-69
2022/03/20 08:28:52;;;;;;;29.77;19.67;;;5.90;93.30;;;;;;6158675;23;20006;-69
2022/03/20 08:31:24;;;;;;;30.88;19.15;;;5.90;94.30;;;;;;6184198;23;20025;-70
2022/03/20 08:33:50;;;;;;;28.98;19.30;;;5.90;94.30;;;;;;6134966;23;20068;-70
2022/03/20 08:36:16;;;;;;;32.97;20.77;;;5.90;93.20;;;;;;6134535;23;20002;-70
2022/03/20 08:38:42;;;;;;;31.63;20.40;;;6.20;92.30;;;;;;6134008;23;20007;-69
2022/03/20 08:41:12;;;;;;;31.80;19.20;;;6.40;91.90;;;;;;6158137;23;20010;-69
2022/03/20 08:43:38;;;;;;;33.58;19.35;;;6.70;90.00;;;;;;6158413;23;20017;-70
2022/03/20 08:46:04;;;;;;;30.95;20.00;;;6.80;86.90;;;;;;6134027;23;20041;-70
2022/03/20 08:48:30;;;;;;;31.58;20.08;;;7.00;84.70;;;;;;6183966;23;20032;-70
2022/03/20 08:50:56;;;;;;;34.05;19.70;;;7.10;82.90;;;;;;6183992;23;19997;-70
2022/03/20 08:53:25;;;;;;;30.48;19.85;;;7.10;79.90;;;;;;6157842;23;20064;-70
2022/03/20 08:55:53;;;;;;;31.90;19.90;;;7.30;78.80;;;;;;6134490;23;20017;-70
2022/03/20 08:58:19;;;;;;;33.45;19.67;;;7.40;79.60;;;;;;6134376;23;20029;-69
2022/03/20 09:00:45;;;;;;;30.58;19.88;;;7.50;77.70;;;;;;6070106;23;20043;-70
2022/03/20 09:03:12;;;;;;;33.42;20.88;;;7.60;75.70;;;;;;6070513;23;20063;-70
2022/03/20 09:05:38;;;;;;;32.20;20.75;;;7.70;75.20;;;;;;6094912;23;20023;-72
2022/03/20 09:08:04;;;;;;;33.10;20.35;;;7.80;74.90;;;;;;6094414;23;20059;-71
2022/03/20 09:10:30;;;;;;;32.08;20.05;;;7.90;73.20;;;;;;6094622;23;20018;-71
2022/03/20 09:13:00;;;;;;;33.17;20.15;;;8.00;71.90;;;;;;6094390;23;20017;-71
2022/03/20 09:15:32;;;;;;;31.70;19.70;;;8.10;72.20;;;;;;6070812;23;20102;-71
2022/03/20 09:20:47;;;;;;;31.38;20.35;;;8.40;71.10;;;;;;6070336;23;20011;-71
2022/03/20 09:23:19;;;;;;;30.63;20.60;;;8.50;70.40;;;;;;6070253;23;20003;-71
2022/03/20 09:25:51;;;;;;;32.33;20.25;;;8.60;70.10;;;;;;6070193;23;20002;-71
2022/03/20 09:28:17;;;;;;;30.55;20.60;;;8.70;68.90;;;;;;6093984;23;20009;-70
2022/03/20 09:30:45;;;;;;;33.75;20.90;;;8.80;69.20;;;;;;6104407;23;20015;-71
2022/03/20 09:33:29;;;;;;;31.13;20.52;;;8.80;69.00;;;;;;6154142;23;20009;-70
2022/03/20 09:35:56;;;;;;;33.65;21.17;;;8.80;66.70;;;;;;6133610;23;20009;-71
2022/03/20 09:38:26;;;;;;;32.75;20.83;;;8.80;67.60;;;;;;6183191;23;20005;-71
2022/03/20 09:40:56;;;;;;;29.92;20.05;;;8.90;67.60;;;;;;6158042;23;20009;-70
2022/03/20 09:43:31;;;;;;;37.67;21.60;;;9.00;67.70;;;;;;6183534;23;20002;-70
2022/03/20 09:46:00;;;;;;;33.78;20.10;;;9.30;66.70;;;;;;6157966;23;20025;-71
2022/03/20 09:48:27;;;;;;;30.70;19.38;;;9.20;65.80;;;;;;6183252;23;20009;-70
2022/03/20 09:50:53;;;;;;;30.45;20.67;;;9.30;65.80;;;;;;6157628;23;20045;-71
2022/03/20 09:53:21;;;;;;;33.53;21.45;;;9.30;65.20;;;;;;6157909;23;20041;-72
2022/03/20 09:55:47;;;;;;;32.40;21.60;;;9.40;64.60;;;;;;6158055;23;20010;-70
2022/03/20 09:58:13;;;;;;;31.20;20.98;;;9.50;64.80;;;;;;6158169;23;20040;-71
2022/03/20 10:00:40;;;;;;;34.58;20.77;;;9.50;64.50;;;;;;6183154;23;20017;-71
2022/03/20 10:03:21;;;;;;;34.08;21.77;;;9.50;63.70;;;;;;6158220;23;20021;-70
2022/03/20 10:06:04;;;;;;;34.50;20.35;;;9.50;62.30;;;;;;6154547;23;20017;-70
2022/03/20 10:08:30;;;;;;;33.28;21.17;;;9.50;63.80;;;;;;6182821;23;20013;-71
2022/03/20 10:11:16;;;;;;;32.10;20.48;;;9.60;64.60;;;;;;6183402;23;20012;-71
2022/03/20 10:14:13;;;;;;;31.60;20.75;;;9.70;63.00;;;;;;6153915;23;20044;-71
2022/03/20 10:16:48;;;;;;;30.48;20.48;;;9.70;62.70;;;;;;6182959;23;20008;-72
2022/03/20 10:19:22;;;;;;;35.30;21.80;;;9.70;62.90;;;;;;6154684;23;20035;-71
2022/03/20 10:22:05;;;;;;;32.75;21.27;;;9.90;63.00;;;;;;6157402;23;20020;-72
2022/03/20 10:24:35;;;;;;;32.88;21.45;;;10.00;61.90;;;;;;6182993;23;20013;-71
2022/03/20 10:27:01;;;;;;;33.47;22.20;;;10.10;62.90;;;;;;6132570;23;20006;-70
2022/03/20 10:29:32;;;;;;;34.10;22.38;;;10.30;63.50;;;;;;6157371;23;20064;-71
2022/03/20 10:32:17;;;;;;;33.58;21.88;;;10.40;62.50;;;;;;6132874;23;20032;-70
2022/03/20 10:34:49;;;;;;;31.42;20.20;;;10.50;61.00;;;;;;6182169;23;20017;-70
2022/03/20 10:37:20;;;;;;;32.58;21.73;;;10.50;60.90;;;;;;6183676;23;20065;-71
2022/03/20 10:40:09;;;;;;;37.10;22.95;;;10.50;61.40;;;;;;6132849;23;20001;-71
2022/03/20 10:42:34;;;;;;;34.25;22.05;;;10.60;61.00;;;;;;6133249;23;20016;-70
2022/03/20 10:45:05;;;;;;;33.65;21.40;;;10.70;61.00;;;;;;6183127;23;20006;-70
2022/03/20 10:47:31;;;;;;;34.65;21.52;;;10.70;60.50;;;;;;6157311;23;20017;-70
2022/03/20 10:50:09;;;;;;;34.30;21.40;;;10.70;61.50;;;;;;6157477;23;20006;-70
2022/03/20 10:52:37;;;;;;;35.70;22.63;;;10.80;60.60;;;;;;6182523;23;20005;-71
2022/03/20 10:55:12;;;;;;;33.00;21.58;;;10.80;61.10;;;;;;6183003;23;19994;-72
2022/03/20 10:57:44;;;;;;;34.92;22.35;;;11.00;59.80;;;;;;6132981;23;20016;-69
2022/03/20 11:00:14;;;;;;;32.60;21.27;;;11.10;61.10;;;;;;6157303;23;20014;-70
2022/03/20 11:02:41;;;;;;;36.67;22.17;;;11.10;60.00;;;;;;6182877;23;20029;-70
2022/03/20 11:05:08;;;;;;;33.08;20.88;;;11.20;59.30;;;;;;6127041;23;20063;-72
2022/03/20 11:07:39;;;;;;;36.88;22.42;;;11.20;59.00;;;;;;6152583;23;20033;-70
2022/03/20 11:10:13;;;;;;;34.25;22.00;;;11.30;59.50;;;;;;6152247;23;19998;-70
2022/03/20 11:12:46;;;;;;;34.83;22.33;;;11.30;59.10;;;;;;6152372;23;20009;-71
2022/03/20 11:15:12;;;;;;;36.20;22.08;;;11.50;59.70;;;;;;6151808;23;20017;-71
2022/03/20 11:17:46;;;;;;;35.75;22.77;;;11.60;59.10;;;;;;6152294;23;20006;-70
2022/03/20 11:20:14;;;;;;;34.67;23.33;;;11.50;58.30;;;;;;6152643;23;20018;-71
2022/03/20 11:22:53;;;;;;;35.47;23.58;;;11.50;58.70;;;;;;6151887;23;20018;-71
2022/03/20 11:25:25;;;;;;;36.20;23.63;;;11.60;58.30;;;;;;6128011;23;20006;-70
2022/03/20 11:28:01;;;;;;;34.67;22.23;;;11.50;57.20;;;;;;6152274;23;20030;-71
2022/03/20 11:30:35;;;;;;;31.95;21.65;;;11.60;58.20;;;;;;6151678;23;20041;-70
2022/03/20 11:33:02;;;;;;;37.95;22.95;;;11.60;56.70;;;;;;6152038;23;19998;-70
2022/03/20 11:35:35;;;;;;;39.63;21.77;;;11.60;57.80;;;;;;6152242;23;20005;-71
2022/03/20 11:38:26;;;;;;;33.13;22.50;;;11.60;57.20;;;;;;6151576;23;20030;-71
2022/03/20 11:41:10;;;;;;;33.55;22.92;;;11.80;56.90;;;;;;6152147;23;20014;-71
2022/03/20 11:43:53;;;;;;;;;;;;;;;;;;;;;
2022/03/20 11:46:30;;;;;;;35.30;22.38;;;12.10;57.50;;;;;;6151984;23;20034;-70
2022/03/20 11:49:17;;;;;;;34.35;22.45;;;12.20;56.90;;;;;;6151890;23;20010;-71
2022/03/20 11:51:58;;;;;;;38.25;22.48;;;12.40;56.60;;;;;;6152934;23;20002;-70
2022/03/20 11:54:39;;;;;;;37.78;23.23;;;12.40;55.90;;;;;;6127157;23;20049;-72
2022/03/20 11:57:24;;;;;;;34.88;22.70;;;12.50;56.30;;;;;;6151633;23;20002;-71
2022/03/20 11:59:56;;;;;;;36.53;23.23;;;12.60;56.00;;;;;;6127861;23;20014;-71
2022/03/20 12:02:55;;;;;;;37.33;23.75;;;12.60;56.20;;;;;;6152219;23;20010;-70
2022/03/20 12:06:05;;;;;;;39.03;23.53;;;12.70;56.50;;;;;;6175654;23;20010;-71
2022/03/20 12:08:59;;;;;;;36.33;23.63;;;12.80;54.90;;;;;;6140043;23;20234;-71
2022/03/20 12:11:59;;;;;;;34.63;22.48;;;12.70;55.20;;;;;;6151850;23;20037;-71
2022/03/20 12:14:36;;;;;;;38.58;22.52;;;12.70;55.70;;;;;;6152410;23;20029;-71
2022/03/20 12:17:05;;;;;;;37.83;23.00;;;12.60;56.10;;;;;;6153356;23;19998;-70
2022/03/20 12:19:44;;;;;;;32.92;22.77;;;12.40;56.10;;;;;;6153857;23;20014;-70
2022/03/20 12:22:28;;;;;;;36.05;22.20;;;12.10;55.50;;;;;;6128401;23;20013;-70
2022/03/20 12:25:05;;;;;;;35.42;23.13;;;11.90;56.10;;;;;;6154677;23;20012;-70
2022/03/20 12:27:31;;;;;;;39.92;23.08;;;11.80;56.70;;;;;;6154408;23;20009;-71
2022/03/20 12:30:12;;;;;;;36.08;22.65;;;11.70;56.90;;;;;;6129750;23;20014;-71
2022/03/20 12:32:47;;;;;;;34.70;22.88;;;11.80;57.00;;;;;;6129127;23;20073;-70
2022/03/20 12:35:23;;;;;;;32.53;22.38;;;11.70;57.30;;;;;;6153944;23;20025;-71
2022/03/20 12:37:50;;;;;;;37.97;24.05;;;11.70;57.60;;;;;;6153217;23;20005;-70
2022/03/20 12:40:22;;;;;;;36.38;22.98;;;11.60;58.00;;;;;;6153531;23;20017;-71
2022/03/20 12:42:56;;;;;;;52.00;23.60;;;11.70;57.70;;;;;;6128224;23;20017;-71
2022/03/20 12:45:23;;;;;;;35.08;23.42;;;11.70;57.50;;;;;;6153763;23;20002;-71
2022/03/20 12:48:15;;;;;;;37.40;24.58;;;11.60;57.20;;;;;;6154322;23;20013;-70
2022/03/20 12:50:52;;;;;;;36.58;24.42;;;11.60;57.20;;;;;;6153400;23;20037;-70
2022/03/20 12:53:37;;;;;;;42.90;25.10;;;11.50;57.80;;;;;;6129076;23;20010;-70
2022/03/20 12:58:45;;;;;;;38.85;23.67;;;11.40;58.70;;;;;;6153447;23;20002;-70
2022/03/20 13:01:11;;;;;;;36.72;23.77;;;11.30;58.80;;;;;;6154280;23;20041;-70
2022/03/20 13:03:37;;;;;;;39.00;23.23;;;11.20;59.20;;;;;;6153921;23;20021;-71
2022/03/20 13:06:03;;;;;;;38.85;24.42;;;11.20;59.40;;;;;;6133975;23;20021;-70
2022/03/20 13:08:35;;;;;;;36.58;23.52;;;11.20;59.20;;;;;;6182871;23;20020;-70
2022/03/20 13:11:54;;;;;;;35.80;23.98;;;11.10;59.40;;;;;;6158230;23;20049;-71
2022/03/20 13:14:04;;;;;;;33.85;22.85;;;11.10;59.80;;;;;;6137272;23;20061;-70
2022/03/20 13:16:37;;;;;;;33.15;22.85;;;11.10;59.80;;;;;;6183771;23;20010;-71
2022/03/20 13:19:03;;;;;;;37.65;24.65;;;11.10;59.40;;;;;;6134565;23;20016;-70
2022/03/20 13:21:31;;;;;;;38.00;24.40;;;11.10;59.70;;;;;;6183240;23;20002;-71
2022/03/20 13:24:08;;;;;;;35.35;23.65;;;11.10;60.00;;;;;;6133925;23;20013;-71
2022/03/20 13:26:34;;;;;;;35.50;23.50;;;11.10;59.50;;;;;;6183565;23;20013;-70
2022/03/20 13:28:59;;;;;;;35.75;23.23;;;11.20;59.60;;;;;;6158091;23;20009;-70